Earlville, IL (60518)

11:10 AM CDT on August 27, 2016 (GMT -0500)
Farm 34 | | Change Station

Elev 699 ft 41.59 °N, 88.85 °W | Updated 2 minutes ago

Overcast
Overcast
74.6 °F
Feels Like 73 °F
N
11.0
Wind Variable Wind from South
Gusts 14.0 mph

Today
High -- | Low -- °F
--% Chance of Precip.
Yesterday
High -- | Low -- °F
Precip. -- in
Pressure 30.05 in
Visibility 10.0 miles
Clouds Mostly Cloudy 1300 ft
Overcast 1800 ft
Heat Index 73 °F
Dew Point 72 °F
Humidity 91%
Rainfall 0.67 in
Snow Depth Not available.
6:17 AM 7:36 PM
Waning Crescent, 23% visible
METAR KVYS 271555Z AUTO 20010KT 10SM BKN013 OVC018 25/23 A3005 RMK AO2 T02540228
Pressure 30.05 in
Visibility 10.0 miles
Clouds Mostly Cloudy 1300 ft
Overcast 1800 ft
Heat Index 73 °F
Dew Point 72 °F
Humidity 91%
Rainfall 0.67 in
Snow Depth Not available.
6:17 AM 7:36 PM
Waning Crescent, 23% visible
METAR KVYS 271555Z AUTO 20010KT 10SM BKN013 OVC018 25/23 A3005 RMK AO2 T02540228

10-Day Weather Forecast

Almanac

Astronomy

Aug. 27, 2016 Rise Set
Actual Time
Civil Twilight
Nautical Twilight
Astronomical Twilight
Moon
Length of Visible Light
Length of Day
Tomorrow will be .
, % of the Moon is Illuminated

Today's Extremes

State Highs State Lows

Community

WunderPhotos

Upload Photos

1,935,373 photos uploaded!

WunderBlog® & News

Nearby

Air Quality

  Air Quality AQ Index Pollutant
Not available.

Snow Depth

Station Depth Elevation

Earthquake Activity

City Distance Mag. Time & Date
Minimum magnitude displayed is 2.5.

Coastal Water Temperatures

Place Temperature

Stations

Nearby Weather Stations

Station Location Temp. Windchill Dew Point Humidity Wind Precip. Elev Updated Type
                   

Watches & Warnings

There are currently no watches in effect.